sensor_id;sensor_type;location;lat;lon;timestamp;P1;durP1;ratioP1;P2;durP2;ratioP2
73107;SDS011;61559;50.476;15.588;2023-09-19T00:01:23;4.50;;;3.00;;
73107;SDS011;61559;50.476;15.588;2023-09-19T00:03:54;5.80;;;3.30;;
73107;SDS011;61559;50.476;15.588;2023-09-19T00:06:28;7.00;;;3.60;;
73107;SDS011;61559;50.476;15.588;2023-09-19T00:09:00;7.20;;;3.40;;
73107;SDS011;61559;50.476;15.588;2023-09-19T00:11:31;7.10;;;3.30;;
73107;SDS011;61559;50.476;15.588;2023-09-19T00:14:03;4.80;;;3.20;;
73107;SDS011;61559;50.476;15.588;2023-09-19T00:16:37;5.90;;;3.20;;
73107;SDS011;61559;50.476;15.588;2023-09-19T00:19:09;6.40;;;3.00;;
73107;SDS011;61559;50.476;15.588;2023-09-19T00:21:41;4.10;;;2.60;;
73107;SDS011;61559;50.476;15.588;2023-09-19T00:24:14;8.00;;;2.90;;
73107;SDS011;61559;50.476;15.588;2023-09-19T00:26:45;3.70;;;2.90;;
73107;SDS011;61559;50.476;15.588;2023-09-19T00:29:17;5.10;;;2.90;;
73107;SDS011;61559;50.476;15.588;2023-09-19T00:31:48;6.20;;;3.00;;
73107;SDS011;61559;50.476;15.588;2023-09-19T00:34:19;7.60;;;3.40;;
73107;SDS011;61559;50.476;15.588;2023-09-19T00:36:51;5.10;;;3.70;;
73107;SDS011;61559;50.476;15.588;2023-09-19T00:39:23;8.10;;;3.00;;
73107;SDS011;61559;50.476;15.588;2023-09-19T00:41:54;5.60;;;3.20;;
73107;SDS011;61559;50.476;15.588;2023-09-19T00:44:25;7.00;;;3.40;;
73107;SDS011;61559;50.476;15.588;2023-09-19T00:46:56;4.40;;;3.20;;
73107;SDS011;61559;50.476;15.588;2023-09-19T00:49:27;6.20;;;4.20;;
73107;SDS011;61559;50.476;15.588;2023-09-19T00:52:02;6.70;;;4.00;;
73107;SDS011;61559;50.476;15.588;2023-09-19T00:54:34;6.20;;;3.80;;
73107;SDS011;61559;50.476;15.588;2023-09-19T00:57:05;7.10;;;4.30;;
73107;SDS011;61559;50.476;15.588;2023-09-19T00:59:38;8.80;;;4.60;;
73107;SDS011;61559;50.476;15.588;2023-09-19T01:02:09;8.00;;;5.10;;
73107;SDS011;61559;50.476;15.588;2023-09-19T01:04:42;10.50;;;5.00;;
73107;SDS011;61559;50.476;15.588;2023-09-19T01:07:14;8.40;;;5.10;;
73107;SDS011;61559;50.476;15.588;2023-09-19T01:09:46;7.50;;;5.00;;
73107;SDS011;61559;50.476;15.588;2023-09-19T01:12:20;8.50;;;5.40;;
73107;SDS011;61559;50.476;15.588;2023-09-19T01:15:01;5.50;;;4.70;;
73107;SDS011;61559;50.476;15.588;2023-09-19T01:17:42;8.20;;;4.90;;
73107;SDS011;61559;50.476;15.588;2023-09-19T01:20:19;8.50;;;5.00;;
73107;SDS011;61559;50.476;15.588;2023-09-19T01:23:03;7.80;;;4.80;;
73107;SDS011;61559;50.476;15.588;2023-09-19T01:28:51;6.70;;;4.60;;
73107;SDS011;61559;50.476;15.588;2023-09-19T01:31:31;9.00;;;4.60;;
73107;SDS011;61559;50.476;15.588;2023-09-19T01:34:04;7.60;;;4.40;;
73107;SDS011;61559;50.476;15.588;2023-09-19T01:36:36;6.60;;;4.10;;
73107;SDS011;61559;50.476;15.588;2023-09-19T01:39:08;7.90;;;4.20;;
73107;SDS011;61559;50.476;15.588;2023-09-19T01:44:40;7.30;;;3.70;;
73107;SDS011;61559;50.476;15.588;2023-09-19T01:47:19;7.90;;;3.70;;
73107;SDS011;61559;50.476;15.588;2023-09-19T01:50:01;5.20;;;2.90;;
73107;SDS011;61559;50.476;15.588;2023-09-19T01:52:43;7.20;;;3.80;;
73107;SDS011;61559;50.476;15.588;2023-09-19T01:55:18;5.50;;;3.50;;
73107;SDS011;61559;50.476;15.588;2023-09-19T01:57:51;5.60;;;3.90;;
73107;SDS011;61559;50.476;15.588;2023-09-19T02:00:33;4.90;;;3.10;;
73107;SDS011;61559;50.476;15.588;2023-09-19T02:03:07;4.50;;;3.20;;
73107;SDS011;61559;50.476;15.588;2023-09-19T02:05:41;6.90;;;3.20;;
73107;SDS011;61559;50.476;15.588;2023-09-19T02:08:17;5.40;;;3.30;;
73107;SDS011;61559;50.476;15.588;2023-09-19T02:10:52;4.50;;;3.20;;
73107;SDS011;61559;50.476;15.588;2023-09-19T02:13:23;4.80;;;3.10;;
73107;SDS011;61559;50.476;15.588;2023-09-19T02:15:56;5.40;;;3.50;;
73107;SDS011;61559;50.476;15.588;2023-09-19T02:18:28;4.50;;;3.40;;
73107;SDS011;61559;50.476;15.588;2023-09-19T02:21:03;6.70;;;3.20;;
73107;SDS011;61559;50.476;15.588;2023-09-19T02:23:34;5.10;;;3.30;;
73107;SDS011;61559;50.476;15.588;2023-09-19T02:26:06;7.00;;;3.40;;
73107;SDS011;61559;50.476;15.588;2023-09-19T02:28:39;4.30;;;2.90;;
73107;SDS011;61559;50.476;15.588;2023-09-19T02:31:10;4.30;;;3.20;;
73107;SDS011;61559;50.476;15.588;2023-09-19T02:33:41;7.10;;;3.10;;
73107;SDS011;61559;50.476;15.588;2023-09-19T02:36:14;5.90;;;3.70;;
73107;SDS011;61559;50.476;15.588;2023-09-19T02:38:46;5.50;;;4.10;;
73107;SDS011;61559;50.476;15.588;2023-09-19T02:41:17;5.20;;;3.70;;
73107;SDS011;61559;50.476;15.588;2023-09-19T02:43:48;5.00;;;2.80;;
73107;SDS011;61559;50.476;15.588;2023-09-19T02:46:20;5.00;;;3.90;;
73107;SDS011;61559;50.476;15.588;2023-09-19T02:48:53;9.00;;;4.10;;
73107;SDS011;61559;50.476;15.588;2023-09-19T02:51:24;7.30;;;3.60;;
73107;SDS011;61559;50.476;15.588;2023-09-19T02:53:55;5.60;;;4.10;;
73107;SDS011;61559;50.476;15.588;2023-09-19T02:56:27;6.70;;;4.50;;
73107;SDS011;61559;50.476;15.588;2023-09-19T02:58:58;7.90;;;4.70;;
73107;SDS011;61559;50.476;15.588;2023-09-19T03:01:30;6.50;;;4.70;;
73107;SDS011;61559;50.476;15.588;2023-09-19T03:04:02;4.90;;;3.70;;
73107;SDS011;61559;50.476;15.588;2023-09-19T03:06:34;6.90;;;4.30;;
73107;SDS011;61559;50.476;15.588;2023-09-19T03:09:06;7.70;;;4.30;;
73107;SDS011;61559;50.476;15.588;2023-09-19T03:11:40;6.60;;;4.20;;
73107;SDS011;61559;50.476;15.588;2023-09-19T03:14:12;4.80;;;3.50;;
73107;SDS011;61559;50.476;15.588;2023-09-19T03:16:44;5.50;;;3.80;;
73107;SDS011;61559;50.476;15.588;2023-09-19T03:19:15;6.70;;;3.30;;
73107;SDS011;61559;50.476;15.588;2023-09-19T03:21:49;7.10;;;4.10;;
73107;SDS011;61559;50.476;15.588;2023-09-19T03:24:20;5.50;;;4.10;;
73107;SDS011;61559;50.476;15.588;2023-09-19T03:26:52;6.00;;;4.10;;
73107;SDS011;61559;50.476;15.588;2023-09-19T03:29:23;6.70;;;4.00;;
73107;SDS011;61559;50.476;15.588;2023-09-19T03:31:55;5.10;;;3.70;;
73107;SDS011;61559;50.476;15.588;2023-09-19T03:34:26;6.00;;;3.30;;
73107;SDS011;61559;50.476;15.588;2023-09-19T03:36:58;6.00;;;4.00;;
73107;SDS011;61559;50.476;15.588;2023-09-19T03:39:29;6.60;;;4.00;;
73107;SDS011;61559;50.476;15.588;2023-09-19T03:42:00;7.90;;;3.90;;
73107;SDS011;61559;50.476;15.588;2023-09-19T03:44:32;5.40;;;3.70;;
73107;SDS011;61559;50.476;15.588;2023-09-19T03:47:04;6.50;;;3.60;;
73107;SDS011;61559;50.476;15.588;2023-09-19T03:49:35;6.20;;;4.00;;
73107;SDS011;61559;50.476;15.588;2023-09-19T03:52:06;4.90;;;3.30;;
73107;SDS011;61559;50.476;15.588;2023-09-19T03:54:38;5.00;;;2.70;;
73107;SDS011;61559;50.476;15.588;2023-09-19T03:57:09;3.80;;;2.50;;
73107;SDS011;61559;50.476;15.588;2023-09-19T03:59:44;3.80;;;2.50;;
73107;SDS011;61559;50.476;15.588;2023-09-19T04:02:15;2.80;;;2.20;;
73107;SDS011;61559;50.476;15.588;2023-09-19T04:04:52;5.70;;;2.80;;
73107;SDS011;61559;50.476;15.588;2023-09-19T04:07:23;6.00;;;3.10;;
73107;SDS011;61559;50.476;15.588;2023-09-19T04:09:57;5.10;;;3.10;;
73107;SDS011;61559;50.476;15.588;2023-09-19T04:12:29;7.20;;;3.50;;
73107;SDS011;61559;50.476;15.588;2023-09-19T04:15:00;7.10;;;3.30;;
73107;SDS011;61559;50.476;15.588;2023-09-19T04:17:32;5.50;;;3.90;;
73107;SDS011;61559;50.476;15.588;2023-09-19T04:20:05;5.90;;;3.50;;
73107;SDS011;61559;50.476;15.588;2023-09-19T04:22:37;6.50;;;4.10;;
73107;SDS011;61559;50.476;15.588;2023-09-19T04:25:08;7.10;;;3.40;;
73107;SDS011;61559;50.476;15.588;2023-09-19T04:27:40;6.60;;;3.80;;
73107;SDS011;61559;50.476;15.588;2023-09-19T04:30:12;5.80;;;4.00;;
73107;SDS011;61559;50.476;15.588;2023-09-19T04:32:44;4.60;;;3.40;;
73107;SDS011;61559;50.476;15.588;2023-09-19T04:35:19;4.60;;;3.10;;
73107;SDS011;61559;50.476;15.588;2023-09-19T04:37:50;4.30;;;2.90;;
73107;SDS011;61559;50.476;15.588;2023-09-19T04:40:23;6.00;;;2.90;;
73107;SDS011;61559;50.476;15.588;2023-09-19T04:42:55;5.10;;;2.70;;
73107;SDS011;61559;50.476;15.588;2023-09-19T04:45:27;4.30;;;3.10;;
73107;SDS011;61559;50.476;15.588;2023-09-19T04:47:58;5.50;;;2.90;;
73107;SDS011;61559;50.476;15.588;2023-09-19T04:50:31;5.60;;;3.30;;
73107;SDS011;61559;50.476;15.588;2023-09-19T04:53:03;5.30;;;2.70;;
73107;SDS011;61559;50.476;15.588;2023-09-19T04:55:35;5.00;;;3.00;;
73107;SDS011;61559;50.476;15.588;2023-09-19T04:58:06;5.00;;;2.80;;
73107;SDS011;61559;50.476;15.588;2023-09-19T05:00:37;5.10;;;2.50;;
73107;SDS011;61559;50.476;15.588;2023-09-19T05:03:08;6.20;;;2.70;;
73107;SDS011;61559;50.476;15.588;2023-09-19T05:05:39;5.30;;;2.50;;
73107;SDS011;61559;50.476;15.588;2023-09-19T05:08:11;5.20;;;3.20;;
73107;SDS011;61559;50.476;15.588;2023-09-19T05:10:43;3.50;;;2.70;;
73107;SDS011;61559;50.476;15.588;2023-09-19T05:13:14;4.40;;;2.80;;
73107;SDS011;61559;50.476;15.588;2023-09-19T05:15:45;5.00;;;2.80;;
73107;SDS011;61559;50.476;15.588;2023-09-19T05:18:18;3.80;;;2.50;;
73107;SDS011;61559;50.476;15.588;2023-09-19T05:20:50;3.90;;;2.90;;
73107;SDS011;61559;50.476;15.588;2023-09-19T05:23:23;3.50;;;2.60;;
73107;SDS011;61559;50.476;15.588;2023-09-19T05:25:55;3.20;;;2.50;;
73107;SDS011;61559;50.476;15.588;2023-09-19T05:28:28;3.80;;;2.70;;
73107;SDS011;61559;50.476;15.588;2023-09-19T05:31:01;5.10;;;2.70;;
73107;SDS011;61559;50.476;15.588;2023-09-19T05:33:32;3.90;;;2.80;;
73107;SDS011;61559;50.476;15.588;2023-09-19T05:36:04;5.10;;;3.30;;
73107;SDS011;61559;50.476;15.588;2023-09-19T05:38:35;6.10;;;3.00;;
73107;SDS011;61559;50.476;15.588;2023-09-19T05:41:08;5.60;;;3.30;;
73107;SDS011;61559;50.476;15.588;2023-09-19T05:43:42;5.30;;;3.50;;
73107;SDS011;61559;50.476;15.588;2023-09-19T05:46:13;6.30;;;3.90;;
73107;SDS011;61559;50.476;15.588;2023-09-19T05:48:45;5.90;;;4.20;;
73107;SDS011;61559;50.476;15.588;2023-09-19T05:51:18;5.40;;;3.90;;
73107;SDS011;61559;50.476;15.588;2023-09-19T05:53:51;6.70;;;4.50;;
73107;SDS011;61559;50.476;15.588;2023-09-19T05:56:23;6.20;;;4.30;;
73107;SDS011;61559;50.476;15.588;2023-09-19T05:58:55;6.10;;;4.10;;
73107;SDS011;61559;50.476;15.588;2023-09-19T06:01:28;5.70;;;4.10;;
73107;SDS011;61559;50.476;15.588;2023-09-19T06:04:00;7.20;;;5.00;;
73107;SDS011;61559;50.476;15.588;2023-09-19T06:06:33;8.70;;;4.90;;
73107;SDS011;61559;50.476;15.588;2023-09-19T06:09:07;10.00;;;6.50;;
73107;SDS011;61559;50.476;15.588;2023-09-19T06:11:38;10.10;;;5.00;;
73107;SDS011;61559;50.476;15.588;2023-09-19T06:14:10;5.90;;;4.70;;
73107;SDS011;61559;50.476;15.588;2023-09-19T06:16:41;5.60;;;4.50;;
73107;SDS011;61559;50.476;15.588;2023-09-19T06:19:12;7.60;;;4.60;;
73107;SDS011;61559;50.476;15.588;2023-09-19T06:21:43;8.50;;;5.40;;
73107;SDS011;61559;50.476;15.588;2023-09-19T06:24:15;7.90;;;5.40;;
73107;SDS011;61559;50.476;15.588;2023-09-19T06:26:47;6.60;;;4.80;;
73107;SDS011;61559;50.476;15.588;2023-09-19T06:29:20;6.90;;;4.90;;
73107;SDS011;61559;50.476;15.588;2023-09-19T06:31:51;6.60;;;5.00;;
73107;SDS011;61559;50.476;15.588;2023-09-19T06:34:22;5.90;;;4.60;;
73107;SDS011;61559;50.476;15.588;2023-09-19T06:36:54;7.10;;;4.40;;
73107;SDS011;61559;50.476;15.588;2023-09-19T06:39:25;7.60;;;4.90;;
73107;SDS011;61559;50.476;15.588;2023-09-19T06:41:56;6.50;;;4.80;;
73107;SDS011;61559;50.476;15.588;2023-09-19T06:44:30;5.80;;;4.60;;
73107;SDS011;61559;50.476;15.588;2023-09-19T06:47:01;6.30;;;4.50;;
73107;SDS011;61559;50.476;15.588;2023-09-19T06:49:33;6.30;;;5.20;;
73107;SDS011;61559;50.476;15.588;2023-09-19T06:52:05;5.90;;;4.70;;
73107;SDS011;61559;50.476;15.588;2023-09-19T06:54:36;6.50;;;4.60;;
73107;SDS011;61559;50.476;15.588;2023-09-19T06:57:08;5.70;;;4.10;;
73107;SDS011;61559;50.476;15.588;2023-09-19T06:59:39;6.70;;;4.40;;
73107;SDS011;61559;50.476;15.588;2023-09-19T07:02:10;7.10;;;4.20;;
73107;SDS011;61559;50.476;15.588;2023-09-19T07:04:42;5.40;;;4.60;;
73107;SDS011;61559;50.476;15.588;2023-09-19T07:07:13;5.90;;;4.40;;
73107;SDS011;61559;50.476;15.588;2023-09-19T07:09:45;5.40;;;4.20;;
73107;SDS011;61559;50.476;15.588;2023-09-19T07:12:17;6.60;;;4.40;;
73107;SDS011;61559;50.476;15.588;2023-09-19T07:14:48;5.30;;;3.60;;
73107;SDS011;61559;50.476;15.588;2023-09-19T07:17:19;4.90;;;3.60;;
73107;SDS011;61559;50.476;15.588;2023-09-19T07:19:52;5.60;;;4.50;;
73107;SDS011;61559;50.476;15.588;2023-09-19T07:22:23;6.40;;;4.90;;
73107;SDS011;61559;50.476;15.588;2023-09-19T07:24:55;10.10;;;4.80;;
73107;SDS011;61559;50.476;15.588;2023-09-19T07:27:26;6.40;;;4.80;;
73107;SDS011;61559;50.476;15.588;2023-09-19T07:29:57;6.50;;;4.60;;
73107;SDS011;61559;50.476;15.588;2023-09-19T07:32:30;7.10;;;5.50;;
73107;SDS011;61559;50.476;15.588;2023-09-19T07:35:01;7.90;;;5.60;;
73107;SDS011;61559;50.476;15.588;2023-09-19T07:37:34;8.30;;;5.90;;
73107;SDS011;61559;50.476;15.588;2023-09-19T07:40:06;6.50;;;5.10;;
73107;SDS011;61559;50.476;15.588;2023-09-19T07:42:38;6.80;;;5.90;;
73107;SDS011;61559;50.476;15.588;2023-09-19T07:45:10;7.80;;;5.70;;
73107;SDS011;61559;50.476;15.588;2023-09-19T07:47:45;6.50;;;5.10;;
73107;SDS011;61559;50.476;15.588;2023-09-19T07:50:17;7.00;;;5.30;;
73107;SDS011;61559;50.476;15.588;2023-09-19T07:52:49;5.70;;;5.10;;
73107;SDS011;61559;50.476;15.588;2023-09-19T07:55:21;6.60;;;5.00;;
73107;SDS011;61559;50.476;15.588;2023-09-19T07:57:54;5.70;;;4.70;;
73107;SDS011;61559;50.476;15.588;2023-09-19T08:00:25;6.70;;;4.80;;
73107;SDS011;61559;50.476;15.588;2023-09-19T08:02:56;6.10;;;5.00;;
73107;SDS011;61559;50.476;15.588;2023-09-19T08:05:35;7.30;;;5.00;;
73107;SDS011;61559;50.476;15.588;2023-09-19T08:08:09;7.10;;;5.20;;
73107;SDS011;61559;50.476;15.588;2023-09-19T08:10:41;6.60;;;5.10;;
73107;SDS011;61559;50.476;15.588;2023-09-19T08:13:15;7.00;;;5.40;;
73107;SDS011;61559;50.476;15.588;2023-09-19T08:15:46;7.30;;;5.40;;
73107;SDS011;61559;50.476;15.588;2023-09-19T08:18:19;6.80;;;5.10;;
73107;SDS011;61559;50.476;15.588;2023-09-19T08:20:51;7.30;;;5.90;;
73107;SDS011;61559;50.476;15.588;2023-09-19T08:23:23;6.70;;;5.30;;
73107;SDS011;61559;50.476;15.588;2023-09-19T08:25:57;6.70;;;4.90;;
73107;SDS011;61559;50.476;15.588;2023-09-19T08:28:31;8.80;;;4.70;;
73107;SDS011;61559;50.476;15.588;2023-09-19T08:31:03;7.70;;;5.10;;
73107;SDS011;61559;50.476;15.588;2023-09-19T08:33:36;7.30;;;5.60;;
73107;SDS011;61559;50.476;15.588;2023-09-19T08:36:08;6.60;;;5.40;;
73107;SDS011;61559;50.476;15.588;2023-09-19T08:38:42;10.50;;;5.20;;
73107;SDS011;61559;50.476;15.588;2023-09-19T08:41:13;7.10;;;5.40;;
73107;SDS011;61559;50.476;15.588;2023-09-19T08:43:46;5.90;;;4.60;;
73107;SDS011;61559;50.476;15.588;2023-09-19T08:46:22;5.00;;;4.40;;
73107;SDS011;61559;50.476;15.588;2023-09-19T08:49:01;5.90;;;5.00;;
73107;SDS011;61559;50.476;15.588;2023-09-19T08:51:38;8.30;;;5.40;;
73107;SDS011;61559;50.476;15.588;2023-09-19T08:54:18;8.80;;;5.80;;
73107;SDS011;61559;50.476;15.588;2023-09-19T08:56:54;5.50;;;4.30;;
73107;SDS011;61559;50.476;15.588;2023-09-19T08:59:31;5.30;;;4.50;;
73107;SDS011;61559;50.476;15.588;2023-09-19T09:02:04;6.00;;;4.50;;
73107;SDS011;61559;50.476;15.588;2023-09-19T09:04:41;4.80;;;4.30;;
73107;SDS011;61559;50.476;15.588;2023-09-19T09:07:14;7.50;;;5.20;;
73107;SDS011;61559;50.476;15.588;2023-09-19T09:09:47;5.30;;;4.80;;
73107;SDS011;61559;50.476;15.588;2023-09-19T09:12:18;4.20;;;3.80;;
73107;SDS011;61559;50.476;15.588;2023-09-19T09:14:49;4.90;;;4.40;;
73107;SDS011;61559;50.476;15.588;2023-09-19T09:17:21;4.10;;;3.70;;
73107;SDS011;61559;50.476;15.588;2023-09-19T09:19:53;4.60;;;3.80;;
73107;SDS011;61559;50.476;15.588;2023-09-19T09:22:25;4.70;;;3.30;;
73107;SDS011;61559;50.476;15.588;2023-09-19T09:24:56;4.60;;;3.90;;
73107;SDS011;61559;50.476;15.588;2023-09-19T09:27:30;4.60;;;3.00;;
73107;SDS011;61559;50.476;15.588;2023-09-19T09:30:02;3.70;;;2.90;;
73107;SDS011;61559;50.476;15.588;2023-09-19T09:32:35;4.80;;;3.40;;
73107;SDS011;61559;50.476;15.588;2023-09-19T09:35:22;4.50;;;2.70;;
73107;SDS011;61559;50.476;15.588;2023-09-19T09:38:00;6.20;;;3.50;;
73107;SDS011;61559;50.476;15.588;2023-09-19T09:40:49;3.00;;;2.70;;
73107;SDS011;61559;50.476;15.588;2023-09-19T09:43:29;4.60;;;2.70;;
73107;SDS011;61559;50.476;15.588;2023-09-19T09:46:11;3.30;;;2.80;;
73107;SDS011;61559;50.476;15.588;2023-09-19T09:49:02;4.90;;;2.80;;
73107;SDS011;61559;50.476;15.588;2023-09-19T09:51:49;3.00;;;2.60;;
73107;SDS011;61559;50.476;15.588;2023-09-19T09:54:29;2.70;;;2.30;;
73107;SDS011;61559;50.476;15.588;2023-09-19T09:57:06;3.90;;;1.90;;
73107;SDS011;61559;50.476;15.588;2023-09-19T09:59:50;2.20;;;2.00;;
73107;SDS011;61559;50.476;15.588;2023-09-19T10:02:26;2.80;;;2.40;;
73107;SDS011;61559;50.476;15.588;2023-09-19T10:05:03;4.80;;;2.30;;
73107;SDS011;61559;50.476;15.588;2023-09-19T10:07:50;2.90;;;2.40;;
73107;SDS011;61559;50.476;15.588;2023-09-19T10:10:32;3.40;;;2.10;;
73107;SDS011;61559;50.476;15.588;2023-09-19T10:13:21;3.60;;;2.30;;
73107;SDS011;61559;50.476;15.588;2023-09-19T10:15:55;3.40;;;2.40;;
73107;SDS011;61559;50.476;15.588;2023-09-19T10:18:29;3.10;;;2.30;;
73107;SDS011;61559;50.476;15.588;2023-09-19T10:21:07;4.80;;;2.20;;
73107;SDS011;61559;50.476;15.588;2023-09-19T10:23:40;3.30;;;1.80;;
73107;SDS011;61559;50.476;15.588;2023-09-19T10:26:13;4.00;;;2.50;;
73107;SDS011;61559;50.476;15.588;2023-09-19T10:28:49;2.80;;;2.00;;
73107;SDS011;61559;50.476;15.588;2023-09-19T10:31:23;5.10;;;2.50;;
73107;SDS011;61559;50.476;15.588;2023-09-19T10:33:57;3.40;;;2.20;;
73107;SDS011;61559;50.476;15.588;2023-09-19T10:36:32;3.30;;;2.20;;
73107;SDS011;61559;50.476;15.588;2023-09-19T10:39:04;3.80;;;2.20;;
73107;SDS011;61559;50.476;15.588;2023-09-19T10:41:36;3.90;;;2.10;;
73107;SDS011;61559;50.476;15.588;2023-09-19T10:44:09;3.60;;;2.00;;
73107;SDS011;61559;50.476;15.588;2023-09-19T10:46:42;3.30;;;2.20;;
73107;SDS011;61559;50.476;15.588;2023-09-19T10:49:13;6.60;;;4.10;;
73107;SDS011;61559;50.476;15.588;2023-09-19T10:51:46;2.30;;;1.90;;
73107;SDS011;61559;50.476;15.588;2023-09-19T10:54:19;3.20;;;2.10;;
73107;SDS011;61559;50.476;15.588;2023-09-19T10:56:55;1.70;;;1.60;;
73107;SDS011;61559;50.476;15.588;2023-09-19T10:59:28;4.30;;;1.50;;
73107;SDS011;61559;50.476;15.588;2023-09-19T11:02:16;2.80;;;1.30;;
73107;SDS011;61559;50.476;15.588;2023-09-19T11:04:48;1.40;;;1.20;;
73107;SDS011;61559;50.476;15.588;2023-09-19T11:07:20;3.70;;;1.30;;
73107;SDS011;61559;50.476;15.588;2023-09-19T11:09:54;2.60;;;1.20;;
73107;SDS011;61559;50.476;15.588;2023-09-19T11:24:30;1.70;;;1.60;;
73107;SDS011;61559;50.476;15.588;2023-09-19T11:27:15;2.40;;;1.50;;
73107;SDS011;61559;50.476;15.588;2023-09-19T11:29:47;1.90;;;1.70;;
73107;SDS011;61559;50.476;15.588;2023-09-19T11:36:02;2.90;;;1.50;;
73107;SDS011;61559;50.476;15.588;2023-09-19T11:41:42;2.60;;;1.20;;
73107;SDS011;61559;50.476;15.588;2023-09-19T11:47:06;2.30;;;1.40;;
73107;SDS011;61559;50.476;15.588;2023-09-19T11:49:40;3.70;;;1.60;;
73107;SDS011;61559;50.476;15.588;2023-09-19T11:52:18;2.30;;;1.30;;
73107;SDS011;61559;50.476;15.588;2023-09-19T11:54:55;1.20;;;1.10;;
73107;SDS011;61559;50.476;15.588;2023-09-19T11:57:31;1.30;;;1.10;;
73107;SDS011;61559;50.476;15.588;2023-09-19T12:00:04;2.10;;;1.30;;
73107;SDS011;61559;50.476;15.588;2023-09-19T12:02:38;1.30;;;1.20;;
73107;SDS011;61559;50.476;15.588;2023-09-19T12:05:14;2.70;;;1.00;;
73107;SDS011;61559;50.476;15.588;2023-09-19T12:07:50;2.50;;;1.20;;
73107;SDS011;61559;50.476;15.588;2023-09-19T12:10:22;3.50;;;1.30;;
73107;SDS011;61559;50.476;15.588;2023-09-19T12:12:54;3.00;;;1.00;;
73107;SDS011;61559;50.476;15.588;2023-09-19T12:15:28;1.50;;;1.20;;
73107;SDS011;61559;50.476;15.588;2023-09-19T12:18:07;1.20;;;1.00;;
73107;SDS011;61559;50.476;15.588;2023-09-19T12:20:44;2.70;;;0.90;;
73107;SDS011;61559;50.476;15.588;2023-09-19T12:23:18;1.30;;;1.20;;
73107;SDS011;61559;50.476;15.588;2023-09-19T12:25:49;1.70;;;1.10;;
73107;SDS011;61559;50.476;15.588;2023-09-19T12:28:22;2.60;;;1.10;;
73107;SDS011;61559;50.476;15.588;2023-09-19T12:31:06;1.10;;;0.90;;
73107;SDS011;61559;50.476;15.588;2023-09-19T12:33:40;1.80;;;1.10;;
73107;SDS011;61559;50.476;15.588;2023-09-19T12:39:02;1.40;;;1.00;;
73107;SDS011;61559;50.476;15.588;2023-09-19T12:41:38;2.80;;;1.20;;
73107;SDS011;61559;50.476;15.588;2023-09-19T12:44:11;1.30;;;0.80;;
73107;SDS011;61559;50.476;15.588;2023-09-19T12:46:46;2.40;;;1.10;;
73107;SDS011;61559;50.476;15.588;2023-09-19T12:49:18;1.40;;;1.10;;
73107;SDS011;61559;50.476;15.588;2023-09-19T12:51:51;1.60;;;1.10;;
73107;SDS011;61559;50.476;15.588;2023-09-19T12:54:38;1.20;;;1.10;;
73107;SDS011;61559;50.476;15.588;2023-09-19T12:57:09;1.40;;;1.20;;
73107;SDS011;61559;50.476;15.588;2023-09-19T12:59:54;4.40;;;1.00;;
73107;SDS011;61559;50.476;15.588;2023-09-19T13:02:25;2.10;;;1.10;;
73107;SDS011;61559;50.476;15.588;2023-09-19T13:04:57;2.90;;;1.20;;
73107;SDS011;61559;50.476;15.588;2023-09-19T13:07:42;2.90;;;1.00;;
73107;SDS011;61559;50.476;15.588;2023-09-19T13:10:15;1.90;;;1.00;;
73107;SDS011;61559;50.476;15.588;2023-09-19T13:12:48;0.80;;;0.70;;
73107;SDS011;61559;50.476;15.588;2023-09-19T13:15:23;1.70;;;0.90;;
73107;SDS011;61559;50.476;15.588;2023-09-19T13:17:57;2.00;;;1.00;;
73107;SDS011;61559;50.476;15.588;2023-09-19T13:20:31;1.00;;;0.80;;
73107;SDS011;61559;50.476;15.588;2023-09-19T13:23:07;1.60;;;1.10;;
73107;SDS011;61559;50.476;15.588;2023-09-19T13:25:57;1.00;;;0.90;;
73107;SDS011;61559;50.476;15.588;2023-09-19T13:28:28;1.60;;;1.20;;
73107;SDS011;61559;50.476;15.588;2023-09-19T13:31:00;2.10;;;1.00;;
73107;SDS011;61559;50.476;15.588;2023-09-19T13:33:31;2.20;;;1.10;;
73107;SDS011;61559;50.476;15.588;2023-09-19T13:36:04;2.30;;;1.00;;
73107;SDS011;61559;50.476;15.588;2023-09-19T13:38:36;1.70;;;1.10;;
73107;SDS011;61559;50.476;15.588;2023-09-19T13:41:07;2.00;;;0.90;;
73107;SDS011;61559;50.476;15.588;2023-09-19T13:43:39;2.00;;;0.90;;
73107;SDS011;61559;50.476;15.588;2023-09-19T13:46:10;1.40;;;1.10;;
73107;SDS011;61559;50.476;15.588;2023-09-19T13:48:44;2.50;;;1.20;;
73107;SDS011;61559;50.476;15.588;2023-09-19T13:51:15;1.20;;;0.90;;
73107;SDS011;61559;50.476;15.588;2023-09-19T13:53:48;3.20;;;1.30;;
73107;SDS011;61559;50.476;15.588;2023-09-19T13:56:19;5.90;;;3.10;;
73107;SDS011;61559;50.476;15.588;2023-09-19T13:58:51;3.00;;;1.20;;
73107;SDS011;61559;50.476;15.588;2023-09-19T14:01:22;1.60;;;1.10;;
73107;SDS011;61559;50.476;15.588;2023-09-19T14:03:55;3.90;;;1.20;;
73107;SDS011;61559;50.476;15.588;2023-09-19T14:06:26;1.90;;;1.00;;
73107;SDS011;61559;50.476;15.588;2023-09-19T14:08:58;1.10;;;0.80;;
73107;SDS011;61559;50.476;15.588;2023-09-19T14:11:30;1.70;;;1.20;;
73107;SDS011;61559;50.476;15.588;2023-09-19T14:14:01;2.20;;;0.80;;
73107;SDS011;61559;50.476;15.588;2023-09-19T14:16:33;2.60;;;0.90;;
73107;SDS011;61559;50.476;15.588;2023-09-19T14:19:05;1.30;;;0.80;;
73107;SDS011;61559;50.476;15.588;2023-09-19T14:21:36;1.10;;;0.60;;
73107;SDS011;61559;50.476;15.588;2023-09-19T14:24:07;4.00;;;0.80;;
73107;SDS011;61559;50.476;15.588;2023-09-19T14:26:40;1.10;;;0.70;;
73107;SDS011;61559;50.476;15.588;2023-09-19T14:29:11;1.30;;;0.70;;
73107;SDS011;61559;50.476;15.588;2023-09-19T14:31:42;0.80;;;0.70;;
73107;SDS011;61559;50.476;15.588;2023-09-19T14:34:14;1.50;;;0.50;;
73107;SDS011;61559;50.476;15.588;2023-09-19T14:36:45;1.60;;;0.80;;
73107;SDS011;61559;50.476;15.588;2023-09-19T14:39:17;2.30;;;0.60;;
73107;SDS011;61559;50.476;15.588;2023-09-19T14:41:48;1.80;;;0.50;;
73107;SDS011;61559;50.476;15.588;2023-09-19T14:44:19;11.20;;;6.80;;
73107;SDS011;61559;50.476;15.588;2023-09-19T14:46:50;4.30;;;2.50;;
73107;SDS011;61559;50.476;15.588;2023-09-19T14:49:23;2.70;;;1.90;;
73107;SDS011;61559;50.476;15.588;2023-09-19T14:51:54;2.30;;;0.80;;
73107;SDS011;61559;50.476;15.588;2023-09-19T14:54:26;0.80;;;0.60;;
73107;SDS011;61559;50.476;15.588;2023-09-19T14:56:58;2.40;;;0.60;;
73107;SDS011;61559;50.476;15.588;2023-09-19T14:59:33;1.00;;;0.50;;
73107;SDS011;61559;50.476;15.588;2023-09-19T15:02:05;0.70;;;0.60;;
73107;SDS011;61559;50.476;15.588;2023-09-19T15:04:37;0.80;;;0.70;;
73107;SDS011;61559;50.476;15.588;2023-09-19T15:07:09;1.00;;;0.60;;
73107;SDS011;61559;50.476;15.588;2023-09-19T15:09:41;2.40;;;0.70;;
73107;SDS011;61559;50.476;15.588;2023-09-19T15:12:13;1.00;;;0.50;;
73107;SDS011;61559;50.476;15.588;2023-09-19T15:14:45;0.80;;;0.60;;
73107;SDS011;61559;50.476;15.588;2023-09-19T15:17:16;1.20;;;0.60;;
73107;SDS011;61559;50.476;15.588;2023-09-19T15:19:49;2.50;;;0.60;;
73107;SDS011;61559;50.476;15.588;2023-09-19T15:22:21;2.00;;;0.60;;
73107;SDS011;61559;50.476;15.588;2023-09-19T15:24:53;3.00;;;0.60;;
73107;SDS011;61559;50.476;15.588;2023-09-19T15:27:24;1.50;;;0.70;;
73107;SDS011;61559;50.476;15.588;2023-09-19T15:29:56;2.30;;;0.50;;
73107;SDS011;61559;50.476;15.588;2023-09-19T15:32:28;2.10;;;0.70;;
73107;SDS011;61559;50.476;15.588;2023-09-19T15:34:59;2.40;;;0.60;;
73107;SDS011;61559;50.476;15.588;2023-09-19T15:37:31;1.30;;;0.60;;
73107;SDS011;61559;50.476;15.588;2023-09-19T15:40:03;1.00;;;0.70;;